createdAt,value
2022-09-24T00:01:42.684Z,4.22
2022-09-24T00:04:13.265Z,3.90
2022-09-24T00:06:44.389Z,4.15
2022-09-24T00:09:12.696Z,4.25
2022-09-24T00:11:41.243Z,4.05
2022-09-24T00:14:09.061Z,4.05
2022-09-24T00:16:37.025Z,3.72
2022-09-24T00:19:06.043Z,4.28
2022-09-24T00:21:37.467Z,3.88
2022-09-24T00:24:08.402Z,3.78
2022-09-24T00:26:51.158Z,4.22
2022-09-24T00:29:21.322Z,3.67
2022-09-24T00:31:50.778Z,4.47
2022-09-24T00:34:19.256Z,4.55
2022-09-24T00:36:48.715Z,4.28
2022-09-24T00:39:17.287Z,4.75
2022-09-24T00:41:47.841Z,4.70
2022-09-24T00:44:54.346Z,4.20
2022-09-24T00:47:34.767Z,4.20
2022-09-24T00:50:18.860Z,3.78
2022-09-24T00:52:52.627Z,5.40
2022-09-24T00:55:22.422Z,3.92
2022-09-24T00:57:53.064Z,3.63
2022-09-24T01:00:21.980Z,3.67
2022-09-24T01:02:53.269Z,3.88
2022-09-24T01:05:21.175Z,3.55
2022-09-24T01:07:50.227Z,3.80
2022-09-24T01:10:36.068Z,4.00
2022-09-24T01:13:14.967Z,3.80
2022-09-24T01:15:49.867Z,3.53
2022-09-24T01:18:28.195Z,4.45
2022-09-24T01:21:28.485Z,4.07
2022-09-24T01:24:22.910Z,4.47
2022-09-24T01:26:58.794Z,3.92
2022-09-24T01:29:52.381Z,4.28
2022-09-24T01:32:31.632Z,4.10
2022-09-24T01:35:03.380Z,4.45
2022-09-24T01:37:35.250Z,4.43
2022-09-24T01:40:05.704Z,3.65
2022-09-24T01:42:34.987Z,4.10
2022-09-24T01:45:06.417Z,4.07
2022-09-24T01:47:39.614Z,4.30
2022-09-24T01:50:08.918Z,4.25
2022-09-24T01:52:43.596Z,4.25
2022-09-24T01:55:15.706Z,4.25
2022-09-24T01:57:48.468Z,6.38
2022-09-24T02:00:20.269Z,5.55
2022-09-24T02:02:52.543Z,3.97
2022-09-24T02:05:25.200Z,4.85
2022-09-24T02:07:59.173Z,4.30
2022-09-24T02:10:32.606Z,3.90
2022-09-24T02:13:06.483Z,3.63
2022-09-24T02:15:41.254Z,4.00
2022-09-24T02:18:12.686Z,3.90
2022-09-24T02:20:44.260Z,3.85
2022-09-24T02:23:15.105Z,3.50
2022-09-24T02:25:46.985Z,3.60
2022-09-24T02:28:14.781Z,3.92
2022-09-24T02:30:50.205Z,3.80
2022-09-24T02:33:37.241Z,3.78
2022-09-24T02:36:05.583Z,3.97
2022-09-24T02:38:33.267Z,3.40
2022-09-24T02:41:01.324Z,3.67
2022-09-24T02:43:29.017Z,3.53
2022-09-24T02:45:58.044Z,3.90
2022-09-24T02:48:25.735Z,3.67
2022-09-24T02:50:53.802Z,3.45
2022-09-24T02:53:21.527Z,3.50
2022-09-24T02:55:50.620Z,3.38
2022-09-24T02:58:18.286Z,3.70
2022-09-24T03:00:46.001Z,3.35
2022-09-24T03:03:15.037Z,3.42
2022-09-24T03:05:42.888Z,3.60
2022-09-24T03:08:10.574Z,4.00
2022-09-24T03:10:38.213Z,3.40
2022-09-24T03:13:05.902Z,4.07
2022-09-24T03:15:33.718Z,3.22
2022-09-24T03:18:01.462Z,3.60
2022-09-24T03:20:30.917Z,3.10
2022-09-24T03:22:58.659Z,3.50
2022-09-24T03:25:26.845Z,3.53
2022-09-24T03:27:54.519Z,5.00
2022-09-24T03:30:39.586Z,3.45
2022-09-24T03:33:07.581Z,3.42
2022-09-24T03:35:36.603Z,3.45
2022-09-24T03:40:46.241Z,3.63
2022-09-24T03:43:14.030Z,3.25
2022-09-24T03:45:41.731Z,3.30
2022-09-24T03:48:09.575Z,3.45
2022-09-24T03:50:38.987Z,3.03
2022-09-24T03:53:06.770Z,3.00
2022-09-24T03:55:34.436Z,3.22
2022-09-24T03:58:02.320Z,3.30
2022-09-24T04:00:30.046Z,3.50
2022-09-24T04:02:57.789Z,3.08
2022-09-24T04:05:25.742Z,3.50
2022-09-24T04:07:54.774Z,3.22
2022-09-24T04:10:22.937Z,3.08
2022-09-24T04:12:50.712Z,3.50
2022-09-24T04:15:18.804Z,2.97
2022-09-24T04:17:50.877Z,3.58
2022-09-24T04:20:19.801Z,3.72
2022-09-24T04:22:47.590Z,3.10
2022-09-24T04:25:17.214Z,2.95
2022-09-24T04:27:44.933Z,2.55
2022-09-24T04:30:14.114Z,3.65
2022-09-24T04:32:42.640Z,2.90
2022-09-24T04:35:11.483Z,2.97
2022-09-24T04:37:39.342Z,4.03
2022-09-24T04:40:12.525Z,2.95
2022-09-24T04:42:42.112Z,3.22
2022-09-24T04:45:11.858Z,3.70
2022-09-24T04:47:41.904Z,3.15
2022-09-24T04:50:11.499Z,3.40
2022-09-24T04:52:39.879Z,3.10
2022-09-24T04:55:08.249Z,3.25
2022-09-24T04:57:36.452Z,2.90
2022-09-24T05:00:07.714Z,2.95
2022-09-24T05:02:35.564Z,3.83
2022-09-24T05:05:03.174Z,3.78
2022-09-24T05:07:30.697Z,3.55
2022-09-24T05:09:58.296Z,3.45
2022-09-24T05:12:26.070Z,6.53
2022-09-24T05:14:53.667Z,14.95
2022-09-24T05:17:22.628Z,10.02
2022-09-24T05:19:50.157Z,4.05
2022-09-24T05:22:17.730Z,2.70
2022-09-24T05:24:45.330Z,3.25
2022-09-24T05:27:11.992Z,4.10
2022-09-24T05:29:40.502Z,3.92
2022-09-24T05:32:09.589Z,3.63
2022-09-24T05:34:38.574Z,3.55
2022-09-24T05:37:06.140Z,3.70
2022-09-24T05:39:34.439Z,4.57
2022-09-24T05:42:03.657Z,3.33
2022-09-24T05:44:31.500Z,3.63
2022-09-24T05:46:59.743Z,3.38
2022-09-24T05:49:27.463Z,4.10
2022-09-24T05:51:56.820Z,3.30
2022-09-24T05:54:24.573Z,4.60
2022-09-24T05:56:52.117Z,6.20
2022-09-24T05:59:19.834Z,13.63
2022-09-24T06:01:48.103Z,8.20
2022-09-24T06:04:16.056Z,7.47
2022-09-24T06:06:43.890Z,3.70
2022-09-24T06:09:13.607Z,3.65
2022-09-24T06:11:42.060Z,3.38
2022-09-24T06:14:09.812Z,3.83
2022-09-24T06:16:37.768Z,3.58
2022-09-24T06:19:05.621Z,3.53
2022-09-24T06:21:33.485Z,3.20
2022-09-24T06:24:01.331Z,3.55
2022-09-24T06:26:30.992Z,3.28
2022-09-24T06:29:04.405Z,3.03
2022-09-24T06:31:32.886Z,3.78
2022-09-24T06:34:02.567Z,5.00
2022-09-24T06:36:30.194Z,5.38
2022-09-24T06:38:58.558Z,6.20
2022-09-24T06:41:26.260Z,4.57
2022-09-24T06:43:56.490Z,3.50
2022-09-24T06:46:25.780Z,3.80
2022-09-24T06:48:54.797Z,3.97
2022-09-24T06:51:22.676Z,4.43
2022-09-24T06:53:52.401Z,3.70
2022-09-24T06:56:20.091Z,3.78
2022-09-24T06:58:47.862Z,3.85
2022-09-24T07:01:16.987Z,3.75
2022-09-24T07:03:44.790Z,4.43
2022-09-24T07:06:12.398Z,3.78
2022-09-24T07:08:40.157Z,3.72
2022-09-24T07:11:08.922Z,4.18
2022-09-24T07:13:36.705Z,3.83
2022-09-24T07:16:04.459Z,4.10
2022-09-24T07:18:33.587Z,3.60
2022-09-24T07:21:01.269Z,3.75
2022-09-24T07:23:28.931Z,3.85
2022-09-24T07:25:57.704Z,4.13
2022-09-24T07:28:25.525Z,3.58
2022-09-24T07:30:58.210Z,4.97
2022-09-24T07:33:25.968Z,4.10
2022-09-24T07:35:55.065Z,3.83
2022-09-24T07:38:23.164Z,4.50
2022-09-24T07:40:51.010Z,3.92
2022-09-24T07:43:18.764Z,4.45
2022-09-24T07:45:46.622Z,4.18
2022-09-24T07:48:15.659Z,3.55
2022-09-24T07:50:43.821Z,3.83
2022-09-24T07:53:13.826Z,4.50
2022-09-24T07:55:41.915Z,4.25
2022-09-24T07:58:12.672Z,4.38
2022-09-24T08:00:40.422Z,4.50
2022-09-24T08:03:08.367Z,7.57
2022-09-24T08:05:36.097Z,6.85
2022-09-24T08:08:03.809Z,4.20
2022-09-24T08:10:32.932Z,4.13
2022-09-24T08:13:02.679Z,4.15
2022-09-24T08:15:30.463Z,4.40
2022-09-24T08:18:01.987Z,3.78
2022-09-24T08:20:29.762Z,4.45
2022-09-24T08:23:02.136Z,3.75
2022-09-24T08:25:31.268Z,4.00
2022-09-24T08:28:04.039Z,4.75
2022-09-24T08:30:31.924Z,4.77
2022-09-24T08:32:59.621Z,5.30
2022-09-24T08:35:27.718Z,8.88
2022-09-24T08:37:55.761Z,8.40
2022-09-24T08:40:27.125Z,6.72
2022-09-24T08:43:07.478Z,5.93
2022-09-24T08:46:03.019Z,6.75
2022-09-24T08:48:34.326Z,6.40
2022-09-24T08:51:06.621Z,5.10
2022-09-24T08:53:45.896Z,6.10
2022-09-24T08:56:24.875Z,5.57
2022-09-24T08:58:58.196Z,5.20
2022-09-24T09:01:37.019Z,5.28
2022-09-24T09:04:19.898Z,5.10
2022-09-24T09:06:57.024Z,4.93
2022-09-24T09:09:30.034Z,5.05
2022-09-24T09:12:02.013Z,4.90
2022-09-24T09:14:42.247Z,4.60
2022-09-24T09:17:21.784Z,4.78
2022-09-24T09:19:56.109Z,4.28
2022-09-24T09:22:29.099Z,4.03
2022-09-24T09:25:04.022Z,4.97
2022-09-24T09:27:32.982Z,4.70
2022-09-24T09:30:09.257Z,5.07
2022-09-24T09:32:58.623Z,4.63
2022-09-24T09:35:34.122Z,5.05
2022-09-24T09:38:10.671Z,5.55
2022-09-24T09:40:46.243Z,5.25
2022-09-24T09:43:15.505Z,4.35
2022-09-24T09:45:49.336Z,4.15
2022-09-24T09:48:21.407Z,5.80
2022-09-24T09:50:50.453Z,4.78
2022-09-24T09:53:23.113Z,4.82
2022-09-24T09:55:56.450Z,4.97
2022-09-24T09:58:25.806Z,4.00
2022-09-24T10:00:54.260Z,4.75
2022-09-24T10:03:25.848Z,4.38
2022-09-24T10:05:57.206Z,3.88
2022-09-24T10:08:26.176Z,3.67
2022-09-24T10:10:56.201Z,3.85
2022-09-24T10:13:24.333Z,4.07
2022-09-24T10:15:53.664Z,4.28
2022-09-24T10:18:31.111Z,5.22
2022-09-24T10:21:02.522Z,4.10
2022-09-24T10:23:36.705Z,3.78
2022-09-24T10:26:06.072Z,3.53
2022-09-24T10:28:52.544Z,4.45
2022-09-24T10:31:23.618Z,3.80
2022-09-24T10:33:55.781Z,3.40
2022-09-24T10:36:25.258Z,4.22
2022-09-24T10:39:03.543Z,3.17
2022-09-24T10:41:32.734Z,3.47
2022-09-24T10:44:05.366Z,3.70
2022-09-24T10:46:52.102Z,14.15
2022-09-24T10:49:34.945Z,8.32
2022-09-24T10:52:10.100Z,4.17
2022-09-24T10:54:51.321Z,3.40
2022-09-24T10:57:29.677Z,3.30
2022-09-24T11:00:05.420Z,3.55
2022-09-24T11:03:09.574Z,3.40
2022-09-24T11:08:25.480Z,3.22
2022-09-24T11:11:16.148Z,3.60
2022-09-24T11:13:55.083Z,3.00
2022-09-24T11:16:49.721Z,3.03
2022-09-24T11:19:34.425Z,2.92
2022-09-24T11:22:12.468Z,3.20
2022-09-24T11:24:54.972Z,2.75
2022-09-24T11:27:42.204Z,2.67
2022-09-24T11:30:13.567Z,2.50
2022-09-24T11:33:01.223Z,2.90
2022-09-24T11:35:42.416Z,2.70
2022-09-24T11:38:17.942Z,2.95
2022-09-24T11:41:09.656Z,2.65
2022-09-24T11:44:00.814Z,2.38
2022-09-24T11:46:45.086Z,2.20
2022-09-24T11:49:40.920Z,2.30
2022-09-24T11:52:15.253Z,2.40
2022-09-24T11:54:51.861Z,2.38
2022-09-24T11:57:25.058Z,2.20
2022-09-24T12:00:04.738Z,2.90
2022-09-24T12:02:36.335Z,2.60
2022-09-24T12:05:08.129Z,2.60
2022-09-24T12:07:43.747Z,2.65
2022-09-24T12:10:29.640Z,2.58
2022-09-24T12:13:05.714Z,2.47
2022-09-24T12:15:44.172Z,2.22
2022-09-24T12:18:17.525Z,2.42
2022-09-24T12:23:22.553Z,2.70
2022-09-24T12:25:53.577Z,2.55
2022-09-24T12:28:40.145Z,2.63
2022-09-24T12:31:33.187Z,2.70
2022-09-24T12:34:08.004Z,3.40
2022-09-24T12:36:57.114Z,2.60
2022-09-24T12:39:29.217Z,2.70
2022-09-24T12:42:03.029Z,2.22
2022-09-24T12:44:38.631Z,2.00
2022-09-24T12:47:16.243Z,2.72
2022-09-24T12:49:51.335Z,2.85
2022-09-24T12:52:24.848Z,2.72
2022-09-24T12:54:59.040Z,2.72
2022-09-24T12:57:33.668Z,2.67
2022-09-24T13:00:03.069Z,2.60
2022-09-24T13:02:43.985Z,2.33
2022-09-24T13:05:28.200Z,2.47
2022-09-24T13:07:59.207Z,2.03
2022-09-24T13:10:29.834Z,2.70
2022-09-24T13:13:00.797Z,2.30
2022-09-24T13:15:35.110Z,2.50
2022-09-24T13:18:19.270Z,2.78
2022-09-24T13:21:00.117Z,2.97
2022-09-24T13:23:35.310Z,2.28
2022-09-24T13:26:05.398Z,2.72
2022-09-24T13:28:51.266Z,2.40
2022-09-24T13:31:27.245Z,2.42
2022-09-24T13:33:58.220Z,2.45
2022-09-24T13:36:34.570Z,2.53
2022-09-24T13:39:07.476Z,3.00
2022-09-24T13:41:45.967Z,2.60
2022-09-24T13:44:21.602Z,2.92
2022-09-24T13:46:55.030Z,2.55
2022-09-24T13:49:24.753Z,2.65
2022-09-24T13:52:00.872Z,2.70
2022-09-24T13:54:34.845Z,2.65
2022-09-24T13:57:13.053Z,2.50
2022-09-24T13:59:42.306Z,2.28
2022-09-24T14:02:25.586Z,2.50
2022-09-24T14:04:58.530Z,2.63
2022-09-24T14:07:28.519Z,4.90
2022-09-24T14:10:03.822Z,2.70
2022-09-24T14:12:31.719Z,4.18
2022-09-24T14:15:00.997Z,3.40
2022-09-24T14:17:28.809Z,3.00
2022-09-24T14:19:57.810Z,3.25
2022-09-24T14:22:31.315Z,3.00
2022-09-24T14:25:04.160Z,2.78
2022-09-24T14:27:33.301Z,3.17
2022-09-24T14:30:05.118Z,3.20
2022-09-24T14:32:35.717Z,3.28
2022-09-24T14:35:08.786Z,3.10
2022-09-24T14:37:39.686Z,3.10
2022-09-24T14:40:13.638Z,3.80
2022-09-24T14:42:43.960Z,3.88
2022-09-24T14:45:20.767Z,3.13
2022-09-24T14:47:48.837Z,3.58
2022-09-24T14:50:35.394Z,3.08
2022-09-24T14:53:12.413Z,4.35
2022-09-24T14:55:41.628Z,3.10
2022-09-24T14:58:27.163Z,3.88
2022-09-24T15:00:58.235Z,2.90
2022-09-24T15:03:33.365Z,3.53
2022-09-24T15:06:14.606Z,3.60
2022-09-24T15:08:43.198Z,4.00
2022-09-24T15:11:17.872Z,3.08
2022-09-24T15:13:45.832Z,3.63
2022-09-24T15:16:22.504Z,3.20
2022-09-24T15:18:59.877Z,2.85
2022-09-24T15:21:27.863Z,3.40
2022-09-24T15:23:56.966Z,3.50
2022-09-24T15:26:29.302Z,2.97
2022-09-24T15:28:58.169Z,4.05
2022-09-24T15:31:27.436Z,3.65
2022-09-24T15:33:56.005Z,3.78
2022-09-24T15:36:24.344Z,3.10
2022-09-24T15:38:53.339Z,3.30
2022-09-24T15:41:21.117Z,2.83
2022-09-24T15:43:48.866Z,3.03
2022-09-24T15:46:17.071Z,2.70
2022-09-24T15:48:46.715Z,3.50
2022-09-24T15:51:18.327Z,3.83
2022-09-24T15:53:46.234Z,3.80
2022-09-24T15:56:15.166Z,3.17
2022-09-24T15:58:42.917Z,3.50
2022-09-24T16:01:16.717Z,3.22
2022-09-24T16:03:46.092Z,2.95
2022-09-24T16:06:14.309Z,2.72
2022-09-24T16:08:43.703Z,2.92
2022-09-24T16:11:11.406Z,2.90
2022-09-24T16:13:39.023Z,6.22
2022-09-24T16:16:08.223Z,7.47
2022-09-24T16:18:38.046Z,9.30
2022-09-24T16:21:08.335Z,9.43
2022-09-24T16:23:36.100Z,8.15
2022-09-24T16:26:03.794Z,8.00
2022-09-24T16:28:31.962Z,6.93
2022-09-24T16:30:59.724Z,6.00
2022-09-24T16:33:27.484Z,5.70
2022-09-24T16:35:55.243Z,9.00
2022-09-24T16:38:24.349Z,7.57
2022-09-24T16:41:00.712Z,4.55
2022-09-24T16:43:28.853Z,4.50
2022-09-24T16:46:01.375Z,3.83
2022-09-24T16:48:29.090Z,4.20
2022-09-24T16:51:03.237Z,4.60
2022-09-24T16:53:34.236Z,4.25
2022-09-24T16:56:06.650Z,4.18
2022-09-24T16:58:34.466Z,3.13
2022-09-24T17:01:05.285Z,3.25
2022-09-24T17:03:33.344Z,4.95
2022-09-24T17:06:01.209Z,6.40
2022-09-24T17:08:49.319Z,9.25
2022-09-24T17:11:17.972Z,10.48
2022-09-24T17:13:47.406Z,8.48
2022-09-24T17:16:15.672Z,6.25
2022-09-24T17:18:43.417Z,5.63
2022-09-24T17:21:13.388Z,5.70
2022-09-24T17:23:41.462Z,5.80
2022-09-24T17:26:11.489Z,5.22
2022-09-24T17:28:42.482Z,3.63
2022-09-24T17:31:12.633Z,3.50
2022-09-24T17:33:43.755Z,3.53
2022-09-24T17:36:14.456Z,3.63
2022-09-24T17:38:42.810Z,2.78
2022-09-24T17:41:12.422Z,2.75
2022-09-24T17:43:42.878Z,2.90
2022-09-24T17:46:14.458Z,2.80
2022-09-24T17:48:45.561Z,3.08
2022-09-24T17:51:16.216Z,2.95
2022-09-24T17:53:44.098Z,3.13
2022-09-24T17:56:14.917Z,4.97
2022-09-24T17:58:47.850Z,4.55
2022-09-24T18:01:18.963Z,4.57
2022-09-24T18:03:48.737Z,4.05
2022-09-24T18:06:16.453Z,4.70
2022-09-24T18:08:45.955Z,5.90
2022-09-24T18:11:15.858Z,8.00
2022-09-24T18:13:45.518Z,10.90
2022-09-24T18:16:14.913Z,7.05
2022-09-24T18:18:44.403Z,5.32
2022-09-24T18:21:14.408Z,5.38
2022-09-24T18:23:42.570Z,4.00
2022-09-24T18:26:11.888Z,5.80
2022-09-24T18:28:40.536Z,6.07
2022-09-24T18:31:11.387Z,6.00
2022-09-24T18:33:40.986Z,4.60
2022-09-24T18:36:10.859Z,4.03
2022-09-24T18:38:38.820Z,3.63
2022-09-24T18:41:09.756Z,3.78
2022-09-24T18:43:37.682Z,3.92
2022-09-24T18:46:06.429Z,3.85
2022-09-24T18:48:36.076Z,4.18
2022-09-24T18:51:05.062Z,4.03
2022-09-24T18:53:33.095Z,5.50
2022-09-24T18:56:05.432Z,5.72
2022-09-24T18:58:33.038Z,4.93
2022-09-24T19:01:01.907Z,4.00
2022-09-24T19:03:30.471Z,4.35
2022-09-24T19:06:02.098Z,4.85
2022-09-24T19:08:32.137Z,4.13
2022-09-24T19:11:04.379Z,4.18
2022-09-24T19:13:32.514Z,4.07
2022-09-24T19:16:05.586Z,2.40
2022-09-24T19:18:34.254Z,2.22
2022-09-24T19:21:06.283Z,2.33
2022-09-24T19:23:37.470Z,2.60
2022-09-24T19:26:06.624Z,2.20
2022-09-24T19:28:34.931Z,3.35
2022-09-24T19:31:03.081Z,3.92
2022-09-24T19:33:30.821Z,2.70
2022-09-24T19:36:01.750Z,2.28
2022-09-24T19:38:32.394Z,2.38
2022-09-24T19:41:01.572Z,6.93
2022-09-24T19:43:30.963Z,3.13
2022-09-24T19:46:00.329Z,2.78
2022-09-24T19:48:29.810Z,2.53
2022-09-24T19:51:00.783Z,3.20
2022-09-24T19:53:31.588Z,2.88
2022-09-24T19:55:59.615Z,3.15
2022-09-24T19:58:28.034Z,3.42
2022-09-24T20:00:56.015Z,3.50
2022-09-24T20:03:25.949Z,3.10
2022-09-24T20:05:53.794Z,2.70
2022-09-24T20:08:23.905Z,2.58
2022-09-24T20:10:52.989Z,2.78
2022-09-24T20:13:20.796Z,2.53
2022-09-24T20:15:48.767Z,2.50
2022-09-24T20:18:16.500Z,3.22
2022-09-24T20:20:44.236Z,2.88
2022-09-24T20:23:12.024Z,2.70
2022-09-24T20:25:57.750Z,2.60
2022-09-24T20:28:26.817Z,2.33
2022-09-24T20:30:54.764Z,2.65
2022-09-24T20:33:22.546Z,2.42
2022-09-24T20:35:50.241Z,2.38
2022-09-24T20:38:18.699Z,2.80
2022-09-24T20:40:46.465Z,2.72
2022-09-24T20:43:14.326Z,2.45
2022-09-24T20:45:43.352Z,1.95
2022-09-24T20:48:12.074Z,2.13
2022-09-24T20:50:40.133Z,2.20
2022-09-24T20:53:08.040Z,2.83
2022-09-24T20:55:35.897Z,2.65
2022-09-24T20:58:03.576Z,2.20
2022-09-24T21:00:35.809Z,2.03
2022-09-24T21:03:25.548Z,2.90
2022-09-24T21:05:53.222Z,2.65
2022-09-24T21:08:20.923Z,2.00
2022-09-24T21:10:48.656Z,2.20
2022-09-24T21:13:16.326Z,2.40
2022-09-24T21:15:44.083Z,2.05
2022-09-24T21:18:22.678Z,2.10
2022-09-24T21:20:51.285Z,3.20
2022-09-24T21:23:19.042Z,2.35
2022-09-24T21:25:54.347Z,2.03
2022-09-24T21:28:22.668Z,2.30
2022-09-24T21:30:57.972Z,2.50
2022-09-24T21:33:27.110Z,2.42
2022-09-24T21:35:57.440Z,2.67
2022-09-24T21:38:25.126Z,2.58
2022-09-24T21:40:54.435Z,2.95
2022-09-24T21:43:23.562Z,2.70
2022-09-24T21:45:52.424Z,2.80
2022-09-24T21:48:20.316Z,2.88
2022-09-24T21:50:49.390Z,3.97
2022-09-24T21:53:17.075Z,3.60
2022-09-24T21:55:48.367Z,4.50
2022-09-24T21:58:16.280Z,4.20
2022-09-24T22:00:43.984Z,3.97
2022-09-24T22:03:12.310Z,4.45
2022-09-24T22:05:42.931Z,4.07
2022-09-24T22:08:12.998Z,4.10
2022-09-24T22:10:41.699Z,4.60
2022-09-24T22:13:11.035Z,3.60
2022-09-24T22:15:38.849Z,4.07
2022-09-24T22:18:06.685Z,4.03
2022-09-24T22:20:34.348Z,4.05
2022-09-24T22:23:02.000Z,3.78
2022-09-24T22:25:31.290Z,4.13
2022-09-24T22:27:58.938Z,3.92
2022-09-24T22:30:26.777Z,4.13
2022-09-24T22:32:54.657Z,4.38
2022-09-24T22:35:43.062Z,4.43
2022-09-24T22:38:11.229Z,3.70
2022-09-24T22:40:40.507Z,4.43
2022-09-24T22:43:08.206Z,3.75
2022-09-24T22:45:35.851Z,3.92
2022-09-24T22:48:03.583Z,3.45
2022-09-24T22:50:31.247Z,3.40
2022-09-24T22:52:58.950Z,4.13
2022-09-24T22:55:26.657Z,3.53
2022-09-24T22:57:56.020Z,4.18
2022-09-24T23:00:23.691Z,4.03
2022-09-24T23:02:51.448Z,4.15
2022-09-24T23:05:19.221Z,4.15
2022-09-24T23:07:46.966Z,4.28
2022-09-24T23:10:14.689Z,4.30
2022-09-24T23:12:42.374Z,4.50
2022-09-24T23:15:11.967Z,3.80
2022-09-24T23:17:39.741Z,4.55
2022-09-24T23:20:09.311Z,4.88
2022-09-24T23:22:36.989Z,5.22
2022-09-24T23:25:05.395Z,4.72
2022-09-24T23:27:33.222Z,7.75
2022-09-24T23:30:01.452Z,6.72
2022-09-24T23:32:31.263Z,5.40
2022-09-24T23:34:58.990Z,4.82
2022-09-24T23:37:26.666Z,4.88
2022-09-24T23:39:54.339Z,4.70
2022-09-24T23:42:22.003Z,5.10
2022-09-24T23:44:49.644Z,5.40
2022-09-24T23:47:18.053Z,5.20
2022-09-24T23:49:47.043Z,5.35
2022-09-24T23:52:14.708Z,4.82
2022-09-24T23:54:42.956Z,4.97
2022-09-24T23:57:11.201Z,4.65
2022-09-24T23:59:39.142Z,5.32
